Airport Name : Braunschweig Wolfsburg

Other Name : Braunschweig

ICAO : EDVE

IATA : BWE

FAA :

Latitude : 52.319167

Longitude : 10.556111

Country : Germany

Local Date and Time : 7/18/2018 11:49:00 PM

 

TAF (Terminal Aerodrome Forecast)

TAF EDVE 181700Z 1818/1821 33009KT CAVOK BECMG 1819/1821 33004KT

 

METAR (METeorological Aerodrome Report)

EDVE 181950Z VRB02KT CAVOK 20/10 Q1017

EDVE 181920Z 33005KT CAVOK 22/09 Q1017

EDVE 181850Z 32008KT CAVOK 23/09 Q1017

EDVE 181820Z 32009KT 300V360 CAVOK 23/09 Q1017

EDVE 181750Z 33009KT CAVOK 24/09 Q1017